sensor_id;sensor_type;location;lat;lon;timestamp;P1;durP1;ratioP1;P2;durP2;ratioP2
39102;SDS011;24847;48.218;16.414;2023-10-08T00:05:46;4.10;;;1.80;;
39102;SDS011;24847;48.218;16.414;2023-10-08T00:10:50;2.67;;;1.80;;
39102;SDS011;24847;48.218;16.414;2023-10-08T00:15:58;5.50;;;2.00;;
39102;SDS011;24847;48.218;16.414;2023-10-08T00:21:01;3.50;;;1.58;;
39102;SDS011;24847;48.218;16.414;2023-10-08T00:26:17;4.13;;;1.92;;
39102;SDS011;24847;48.218;16.414;2023-10-08T00:31:28;4.10;;;2.17;;
39102;SDS011;24847;48.218;16.414;2023-10-08T00:36:37;2.93;;;1.93;;
39102;SDS011;24847;48.218;16.414;2023-10-08T00:41:43;3.05;;;1.80;;
39102;SDS011;24847;48.218;16.414;2023-10-08T00:46:46;2.95;;;2.20;;
39102;SDS011;24847;48.218;16.414;2023-10-08T00:51:49;2.75;;;1.80;;
39102;SDS011;24847;48.218;16.414;2023-10-08T00:57:25;3.50;;;1.90;;
39102;SDS011;24847;48.218;16.414;2023-10-08T01:02:32;3.15;;;1.90;;
39102;SDS011;24847;48.218;16.414;2023-10-08T01:07:49;3.92;;;1.88;;
39102;SDS011;24847;48.218;16.414;2023-10-08T01:12:53;3.92;;;2.20;;
39102;SDS011;24847;48.218;16.414;2023-10-08T01:18:04;3.25;;;1.95;;
39102;SDS011;24847;48.218;16.414;2023-10-08T01:23:16;3.90;;;1.90;;
39102;SDS011;24847;48.218;16.414;2023-10-08T01:28:21;3.42;;;2.22;;
39102;SDS011;24847;48.218;16.414;2023-10-08T01:33:29;2.97;;;2.10;;
39102;SDS011;24847;48.218;16.414;2023-10-08T01:38:33;2.65;;;1.85;;
39102;SDS011;24847;48.218;16.414;2023-10-08T01:43:38;3.20;;;1.88;;
39102;SDS011;24847;48.218;16.414;2023-10-08T01:48:41;3.72;;;2.13;;
39102;SDS011;24847;48.218;16.414;2023-10-08T01:53:46;2.85;;;1.88;;
39102;SDS011;24847;48.218;16.414;2023-10-08T01:58:49;4.88;;;2.00;;
39102;SDS011;24847;48.218;16.414;2023-10-08T02:03:51;3.58;;;2.15;;
39102;SDS011;24847;48.218;16.414;2023-10-08T02:08:56;2.63;;;1.85;;
39102;SDS011;24847;48.218;16.414;2023-10-08T02:14:04;4.23;;;2.10;;
39102;SDS011;24847;48.218;16.414;2023-10-08T02:19:10;3.10;;;1.95;;
39102;SDS011;24847;48.218;16.414;2023-10-08T02:24:14;2.92;;;2.00;;
39102;SDS011;24847;48.218;16.414;2023-10-08T02:29:23;3.85;;;2.22;;
39102;SDS011;24847;48.218;16.414;2023-10-08T02:34:28;3.33;;;1.92;;
39102;SDS011;24847;48.218;16.414;2023-10-08T02:39:32;2.80;;;1.80;;
39102;SDS011;24847;48.218;16.414;2023-10-08T02:44:35;3.45;;;1.90;;
39102;SDS011;24847;48.218;16.414;2023-10-08T02:49:41;5.13;;;2.08;;
39102;SDS011;24847;48.218;16.414;2023-10-08T02:54:46;3.70;;;1.90;;
39102;SDS011;24847;48.218;16.414;2023-10-08T02:59:53;4.00;;;1.83;;
39102;SDS011;24847;48.218;16.414;2023-10-08T03:04:58;3.10;;;1.98;;
39102;SDS011;24847;48.218;16.414;2023-10-08T03:10:04;4.60;;;2.00;;
39102;SDS011;24847;48.218;16.414;2023-10-08T03:15:07;4.03;;;2.45;;
39102;SDS011;24847;48.218;16.414;2023-10-08T03:20:15;3.85;;;1.95;;
39102;SDS011;24847;48.218;16.414;2023-10-08T03:25:39;3.92;;;1.90;;
39102;SDS011;24847;48.218;16.414;2023-10-08T03:30:42;2.63;;;1.73;;
39102;SDS011;24847;48.218;16.414;2023-10-08T03:35:51;2.72;;;1.80;;
39102;SDS011;24847;48.218;16.414;2023-10-08T03:40:57;3.80;;;2.00;;
39102;SDS011;24847;48.218;16.414;2023-10-08T03:46:06;2.45;;;1.85;;
39102;SDS011;24847;48.218;16.414;2023-10-08T03:51:15;2.75;;;1.80;;
39102;SDS011;24847;48.218;16.414;2023-10-08T03:56:22;4.22;;;2.03;;
39102;SDS011;24847;48.218;16.414;2023-10-08T04:01:25;3.50;;;1.95;;
39102;SDS011;24847;48.218;16.414;2023-10-08T04:06:32;3.15;;;1.98;;
39102;SDS011;24847;48.218;16.414;2023-10-08T04:11:44;3.65;;;2.05;;
39102;SDS011;24847;48.218;16.414;2023-10-08T04:17:01;3.53;;;1.90;;
39102;SDS011;24847;48.218;16.414;2023-10-08T04:22:06;3.08;;;1.90;;
39102;SDS011;24847;48.218;16.414;2023-10-08T04:27:17;2.40;;;1.65;;
39102;SDS011;24847;48.218;16.414;2023-10-08T04:32:26;3.63;;;2.10;;
39102;SDS011;24847;48.218;16.414;2023-10-08T04:37:31;3.15;;;1.85;;
39102;SDS011;24847;48.218;16.414;2023-10-08T04:42:35;3.17;;;2.17;;
39102;SDS011;24847;48.218;16.414;2023-10-08T04:47:37;3.83;;;2.08;;
39102;SDS011;24847;48.218;16.414;2023-10-08T04:52:50;3.63;;;1.90;;
39102;SDS011;24847;48.218;16.414;2023-10-08T04:58:02;4.53;;;2.53;;
39102;SDS011;24847;48.218;16.414;2023-10-08T05:03:19;3.67;;;1.83;;
39102;SDS011;24847;48.218;16.414;2023-10-08T05:08:23;3.55;;;1.95;;
39102;SDS011;24847;48.218;16.414;2023-10-08T05:13:51;4.43;;;2.05;;
39102;SDS011;24847;48.218;16.414;2023-10-08T05:19:06;4.63;;;2.15;;
39102;SDS011;24847;48.218;16.414;2023-10-08T05:24:25;3.87;;;1.80;;
39102;SDS011;24847;48.218;16.414;2023-10-08T05:29:41;3.53;;;1.90;;
39102;SDS011;24847;48.218;16.414;2023-10-08T05:35:00;4.10;;;1.98;;
39102;SDS011;24847;48.218;16.414;2023-10-08T05:40:20;3.88;;;1.95;;
39102;SDS011;24847;48.218;16.414;2023-10-08T05:45:47;3.72;;;2.10;;
39102;SDS011;24847;48.218;16.414;2023-10-08T05:51:13;3.30;;;1.80;;
39102;SDS011;24847;48.218;16.414;2023-10-08T05:56:34;3.67;;;2.20;;
39102;SDS011;24847;48.218;16.414;2023-10-08T06:01:54;3.03;;;1.98;;
39102;SDS011;24847;48.218;16.414;2023-10-08T06:07:19;4.03;;;1.75;;
39102;SDS011;24847;48.218;16.414;2023-10-08T06:12:33;2.92;;;1.80;;
39102;SDS011;24847;48.218;16.414;2023-10-08T06:17:52;3.30;;;1.88;;
39102;SDS011;24847;48.218;16.414;2023-10-08T06:23:09;2.70;;;1.60;;
39102;SDS011;24847;48.218;16.414;2023-10-08T06:28:14;3.13;;;2.20;;
39102;SDS011;24847;48.218;16.414;2023-10-08T06:33:21;3.97;;;1.77;;
39102;SDS011;24847;48.218;16.414;2023-10-08T06:38:27;5.43;;;1.98;;
39102;SDS011;24847;48.218;16.414;2023-10-08T06:43:34;5.30;;;2.13;;
39102;SDS011;24847;48.218;16.414;2023-10-08T06:48:39;4.80;;;2.80;;
39102;SDS011;24847;48.218;16.414;2023-10-08T06:53:42;3.88;;;1.92;;
39102;SDS011;24847;48.218;16.414;2023-10-08T06:58:46;3.17;;;1.85;;
39102;SDS011;24847;48.218;16.414;2023-10-08T07:03:51;2.63;;;1.90;;
39102;SDS011;24847;48.218;16.414;2023-10-08T07:08:56;4.68;;;2.40;;
39102;SDS011;24847;48.218;16.414;2023-10-08T07:14:00;3.25;;;1.83;;
39102;SDS011;24847;48.218;16.414;2023-10-08T07:19:05;5.07;;;2.42;;
39102;SDS011;24847;48.218;16.414;2023-10-08T07:24:22;4.88;;;2.53;;
39102;SDS011;24847;48.218;16.414;2023-10-08T07:29:25;6.68;;;3.58;;
39102;SDS011;24847;48.218;16.414;2023-10-08T07:34:29;6.28;;;2.70;;
39102;SDS011;24847;48.218;16.414;2023-10-08T07:39:31;3.35;;;2.13;;
39102;SDS011;24847;48.218;16.414;2023-10-08T07:44:49;5.28;;;1.98;;
39102;SDS011;24847;48.218;16.414;2023-10-08T07:49:55;3.25;;;1.88;;
39102;SDS011;24847;48.218;16.414;2023-10-08T07:54:58;4.65;;;2.30;;
39102;SDS011;24847;48.218;16.414;2023-10-08T08:00:09;3.75;;;1.90;;
39102;SDS011;24847;48.218;16.414;2023-10-08T08:05:28;4.13;;;2.08;;
39102;SDS011;24847;48.218;16.414;2023-10-08T08:10:36;3.05;;;2.00;;
39102;SDS011;24847;48.218;16.414;2023-10-08T08:15:38;3.30;;;1.75;;
39102;SDS011;24847;48.218;16.414;2023-10-08T08:20:56;3.92;;;1.95;;
39102;SDS011;24847;48.218;16.414;2023-10-08T08:26:02;3.15;;;1.83;;
39102;SDS011;24847;48.218;16.414;2023-10-08T08:31:13;2.70;;;1.80;;
39102;SDS011;24847;48.218;16.414;2023-10-08T08:36:16;5.03;;;1.95;;
39102;SDS011;24847;48.218;16.414;2023-10-08T08:41:20;3.50;;;1.88;;
39102;SDS011;24847;48.218;16.414;2023-10-08T08:46:26;5.95;;;2.10;;
39102;SDS011;24847;48.218;16.414;2023-10-08T08:51:40;4.47;;;2.15;;
39102;SDS011;24847;48.218;16.414;2023-10-08T08:56:46;5.80;;;2.10;;
39102;SDS011;24847;48.218;16.414;2023-10-08T09:01:50;6.13;;;2.50;;
39102;SDS011;24847;48.218;16.414;2023-10-08T09:06:54;2.33;;;1.02;;
39102;SDS011;24847;48.218;16.414;2023-10-08T09:11:56;1.73;;;0.80;;
39102;SDS011;24847;48.218;16.414;2023-10-08T09:16:59;0.80;;;0.43;;
39102;SDS011;24847;48.218;16.414;2023-10-08T09:22:10;1.40;;;0.50;;
39102;SDS011;24847;48.218;16.414;2023-10-08T09:27:15;2.42;;;0.30;;
39102;SDS011;24847;48.218;16.414;2023-10-08T09:32:22;0.50;;;0.30;;
39102;SDS011;24847;48.218;16.414;2023-10-08T09:37:29;0.40;;;0.30;;
39102;SDS011;24847;48.218;16.414;2023-10-08T09:42:31;1.20;;;0.60;;
39102;SDS011;24847;48.218;16.414;2023-10-08T09:47:38;1.42;;;0.30;;
39102;SDS011;24847;48.218;16.414;2023-10-08T09:52:49;0.50;;;0.20;;
39102;SDS011;24847;48.218;16.414;2023-10-08T09:58:04;0.82;;;0.10;;
39102;SDS011;24847;48.218;16.414;2023-10-08T10:03:07;0.10;;;0.10;;
39102;SDS011;24847;48.218;16.414;2023-10-08T10:08:13;0.05;;;0.00;;
39102;SDS011;24847;48.218;16.414;2023-10-08T10:13:18;0.00;;;0.00;;
39102;SDS011;24847;48.218;16.414;2023-10-08T10:18:29;0.73;;;0.00;;
39102;SDS011;24847;48.218;16.414;2023-10-08T10:23:36;0.30;;;0.08;;
39102;SDS011;24847;48.218;16.414;2023-10-08T10:28:40;0.47;;;0.20;;
39102;SDS011;24847;48.218;16.414;2023-10-08T10:33:44;0.55;;;0.20;;
39102;SDS011;24847;48.218;16.414;2023-10-08T10:38:47;0.35;;;0.20;;
39102;SDS011;24847;48.218;16.414;2023-10-08T10:43:50;0.40;;;0.00;;
39102;SDS011;24847;48.218;16.414;2023-10-08T10:48:58;0.10;;;0.08;;
39102;SDS011;24847;48.218;16.414;2023-10-08T10:54:19;0.50;;;0.08;;
39102;SDS011;24847;48.218;16.414;2023-10-08T10:59:26;0.10;;;0.10;;
39102;SDS011;24847;48.218;16.414;2023-10-08T11:04:33;0.10;;;0.00;;
39102;SDS011;24847;48.218;16.414;2023-10-08T11:09:49;0.40;;;0.10;;
39102;SDS011;24847;48.218;16.414;2023-10-08T11:14:55;0.25;;;0.10;;
39102;SDS011;24847;48.218;16.414;2023-10-08T11:19:57;1.08;;;0.10;;
39102;SDS011;24847;48.218;16.414;2023-10-08T11:25:19;0.20;;;0.10;;
39102;SDS011;24847;48.218;16.414;2023-10-08T11:30:27;0.35;;;0.10;;
39102;SDS011;24847;48.218;16.414;2023-10-08T11:35:34;3.30;;;2.25;;
39102;SDS011;24847;48.218;16.414;2023-10-08T11:40:39;0.75;;;0.60;;
39102;SDS011;24847;48.218;16.414;2023-10-08T11:45:49;1.45;;;0.20;;
39102;SDS011;24847;48.218;16.414;2023-10-08T11:50:52;0.20;;;0.10;;
39102;SDS011;24847;48.218;16.414;2023-10-08T11:55:59;0.20;;;0.10;;
39102;SDS011;24847;48.218;16.414;2023-10-08T12:01:01;0.47;;;0.25;;
39102;SDS011;24847;48.218;16.414;2023-10-08T12:06:04;0.20;;;0.10;;
39102;SDS011;24847;48.218;16.414;2023-10-08T12:11:11;0.28;;;0.13;;
39102;SDS011;24847;48.218;16.414;2023-10-08T12:16:20;0.65;;;0.28;;
39102;SDS011;24847;48.218;16.414;2023-10-08T12:21:27;0.80;;;0.20;;
39102;SDS011;24847;48.218;16.414;2023-10-08T12:26:32;0.40;;;0.20;;
39102;SDS011;24847;48.218;16.414;2023-10-08T12:31:34;0.40;;;0.20;;
39102;SDS011;24847;48.218;16.414;2023-10-08T12:36:37;1.23;;;0.70;;
39102;SDS011;24847;48.218;16.414;2023-10-08T12:41:41;0.60;;;0.43;;
39102;SDS011;24847;48.218;16.414;2023-10-08T12:46:44;0.75;;;0.40;;
39102;SDS011;24847;48.218;16.414;2023-10-08T12:51:51;0.82;;;0.68;;
39102;SDS011;24847;48.218;16.414;2023-10-08T12:56:55;1.00;;;0.68;;
39102;SDS011;24847;48.218;16.414;2023-10-08T13:01:59;0.95;;;0.47;;
39102;SDS011;24847;48.218;16.414;2023-10-08T13:07:30;1.60;;;0.95;;
39102;SDS011;24847;48.218;16.414;2023-10-08T13:12:42;2.47;;;0.80;;
39102;SDS011;24847;48.218;16.414;2023-10-08T13:17:45;1.65;;;1.00;;
39102;SDS011;24847;48.218;16.414;2023-10-08T13:22:50;1.70;;;0.85;;
39102;SDS011;24847;48.218;16.414;2023-10-08T13:27:59;1.35;;;0.80;;
39102;SDS011;24847;48.218;16.414;2023-10-08T13:33:02;2.10;;;1.08;;
39102;SDS011;24847;48.218;16.414;2023-10-08T13:38:10;1.23;;;0.80;;
39102;SDS011;24847;48.218;16.414;2023-10-08T13:43:19;0.90;;;0.70;;
39102;SDS011;24847;48.218;16.414;2023-10-08T13:48:38;1.33;;;0.65;;
39102;SDS011;24847;48.218;16.414;2023-10-08T13:53:50;1.50;;;0.88;;
39102;SDS011;24847;48.218;16.414;2023-10-08T13:59:01;1.92;;;0.77;;
39102;SDS011;24847;48.218;16.414;2023-10-08T14:04:12;1.40;;;0.77;;
39102;SDS011;24847;48.218;16.414;2023-10-08T14:09:22;1.52;;;0.88;;
39102;SDS011;24847;48.218;16.414;2023-10-08T14:14:37;1.50;;;0.90;;
39102;SDS011;24847;48.218;16.414;2023-10-08T14:19:50;1.10;;;0.70;;
39102;SDS011;24847;48.218;16.414;2023-10-08T14:25:07;2.60;;;1.08;;
39102;SDS011;24847;48.218;16.414;2023-10-08T14:30:15;2.25;;;0.98;;
39102;SDS011;24847;48.218;16.414;2023-10-08T14:35:22;4.32;;;2.22;;
39102;SDS011;24847;48.218;16.414;2023-10-08T14:40:44;2.03;;;0.98;;
39102;SDS011;24847;48.218;16.414;2023-10-08T14:46:08;1.73;;;1.02;;
39102;SDS011;24847;48.218;16.414;2023-10-08T14:51:12;1.73;;;1.05;;
39102;SDS011;24847;48.218;16.414;2023-10-08T14:56:21;2.05;;;1.15;;
39102;SDS011;24847;48.218;16.414;2023-10-08T15:01:26;2.88;;;1.17;;
39102;SDS011;24847;48.218;16.414;2023-10-08T15:06:30;2.22;;;1.00;;
39102;SDS011;24847;48.218;16.414;2023-10-08T15:11:35;2.40;;;1.05;;
39102;SDS011;24847;48.218;16.414;2023-10-08T15:16:40;2.90;;;1.10;;
39102;SDS011;24847;48.218;16.414;2023-10-08T15:21:50;1.70;;;0.95;;
39102;SDS011;24847;48.218;16.414;2023-10-08T15:26:57;2.25;;;1.30;;
39102;SDS011;24847;48.218;16.414;2023-10-08T15:32:17;2.40;;;1.45;;
39102;SDS011;24847;48.218;16.414;2023-10-08T15:37:20;2.13;;;1.17;;
39102;SDS011;24847;48.218;16.414;2023-10-08T15:42:26;3.17;;;1.52;;
39102;SDS011;24847;48.218;16.414;2023-10-08T15:47:31;1.95;;;1.10;;
39102;SDS011;24847;48.218;16.414;2023-10-08T15:52:36;2.92;;;1.80;;
39102;SDS011;24847;48.218;16.414;2023-10-08T15:57:43;2.17;;;1.50;;
39102;SDS011;24847;48.218;16.414;2023-10-08T16:02:46;2.50;;;1.35;;
39102;SDS011;24847;48.218;16.414;2023-10-08T16:07:49;1.45;;;0.98;;
39102;SDS011;24847;48.218;16.414;2023-10-08T16:12:54;2.10;;;1.25;;
39102;SDS011;24847;48.218;16.414;2023-10-08T16:18:01;1.45;;;0.90;;
39102;SDS011;24847;48.218;16.414;2023-10-08T16:23:08;2.10;;;1.08;;
39102;SDS011;24847;48.218;16.414;2023-10-08T16:28:14;1.60;;;1.10;;
39102;SDS011;24847;48.218;16.414;2023-10-08T16:33:22;1.63;;;1.00;;
39102;SDS011;24847;48.218;16.414;2023-10-08T16:38:31;1.55;;;1.20;;
39102;SDS011;24847;48.218;16.414;2023-10-08T16:43:37;1.98;;;1.00;;
39102;SDS011;24847;48.218;16.414;2023-10-08T16:48:41;2.38;;;1.38;;
39102;SDS011;24847;48.218;16.414;2023-10-08T16:53:48;1.98;;;1.50;;
39102;SDS011;24847;48.218;16.414;2023-10-08T16:58:56;1.63;;;1.10;;
39102;SDS011;24847;48.218;16.414;2023-10-08T17:04:00;1.42;;;0.85;;
39102;SDS011;24847;48.218;16.414;2023-10-08T17:09:07;1.70;;;0.98;;
39102;SDS011;24847;48.218;16.414;2023-10-08T17:14:19;1.15;;;0.90;;
39102;SDS011;24847;48.218;16.414;2023-10-08T17:19:23;1.13;;;0.80;;
39102;SDS011;24847;48.218;16.414;2023-10-08T17:24:31;1.67;;;1.17;;
39102;SDS011;24847;48.218;16.414;2023-10-08T17:29:37;4.10;;;0.90;;
39102;SDS011;24847;48.218;16.414;2023-10-08T17:34:43;1.60;;;0.90;;
39102;SDS011;24847;48.218;16.414;2023-10-08T17:39:47;1.85;;;1.05;;
39102;SDS011;24847;48.218;16.414;2023-10-08T17:44:58;2.47;;;1.20;;
39102;SDS011;24847;48.218;16.414;2023-10-08T17:50:02;2.42;;;1.27;;
39102;SDS011;24847;48.218;16.414;2023-10-08T17:55:08;2.05;;;1.30;;
39102;SDS011;24847;48.218;16.414;2023-10-08T18:00:20;2.53;;;1.35;;
39102;SDS011;24847;48.218;16.414;2023-10-08T18:05:25;1.63;;;1.00;;
39102;SDS011;24847;48.218;16.414;2023-10-08T18:10:38;1.42;;;1.17;;
39102;SDS011;24847;48.218;16.414;2023-10-08T18:15:44;1.58;;;1.20;;
39102;SDS011;24847;48.218;16.414;2023-10-08T18:20:52;1.70;;;1.13;;
39102;SDS011;24847;48.218;16.414;2023-10-08T18:26:01;1.23;;;0.88;;
39102;SDS011;24847;48.218;16.414;2023-10-08T18:31:07;1.95;;;1.10;;
39102;SDS011;24847;48.218;16.414;2023-10-08T18:36:15;1.88;;;1.10;;
39102;SDS011;24847;48.218;16.414;2023-10-08T18:41:19;2.45;;;1.40;;
39102;SDS011;24847;48.218;16.414;2023-10-08T18:46:27;4.53;;;1.45;;
39102;SDS011;24847;48.218;16.414;2023-10-08T18:51:33;2.00;;;1.17;;
39102;SDS011;24847;48.218;16.414;2023-10-08T18:56:45;1.67;;;1.20;;
39102;SDS011;24847;48.218;16.414;2023-10-08T19:01:55;2.35;;;1.20;;
39102;SDS011;24847;48.218;16.414;2023-10-08T19:07:01;2.35;;;1.45;;
39102;SDS011;24847;48.218;16.414;2023-10-08T19:12:11;2.30;;;1.48;;
39102;SDS011;24847;48.218;16.414;2023-10-08T19:17:20;1.88;;;1.40;;
39102;SDS011;24847;48.218;16.414;2023-10-08T19:22:25;2.10;;;1.23;;
39102;SDS011;24847;48.218;16.414;2023-10-08T19:27:30;3.25;;;1.38;;
39102;SDS011;24847;48.218;16.414;2023-10-08T19:32:36;2.83;;;1.52;;
39102;SDS011;24847;48.218;16.414;2023-10-08T19:37:40;2.42;;;1.20;;
39102;SDS011;24847;48.218;16.414;2023-10-08T19:42:46;1.75;;;1.23;;
39102;SDS011;24847;48.218;16.414;2023-10-08T19:47:54;1.75;;;1.13;;
39102;SDS011;24847;48.218;16.414;2023-10-08T19:53:02;1.70;;;1.27;;
39102;SDS011;24847;48.218;16.414;2023-10-08T19:58:06;1.80;;;1.20;;
39102;SDS011;24847;48.218;16.414;2023-10-08T20:03:16;2.10;;;1.50;;
39102;SDS011;24847;48.218;16.414;2023-10-08T20:08:23;1.48;;;0.95;;
39102;SDS011;24847;48.218;16.414;2023-10-08T20:13:28;1.88;;;1.50;;
39102;SDS011;24847;48.218;16.414;2023-10-08T20:18:40;1.67;;;1.23;;
39102;SDS011;24847;48.218;16.414;2023-10-08T20:23:46;2.65;;;1.25;;
39102;SDS011;24847;48.218;16.414;2023-10-08T20:28:52;2.17;;;1.15;;
39102;SDS011;24847;48.218;16.414;2023-10-08T20:33:56;1.63;;;1.05;;
39102;SDS011;24847;48.218;16.414;2023-10-08T20:39:00;1.58;;;0.93;;
39102;SDS011;24847;48.218;16.414;2023-10-08T20:44:07;1.60;;;1.27;;
39102;SDS011;24847;48.218;16.414;2023-10-08T20:49:11;1.25;;;0.98;;
39102;SDS011;24847;48.218;16.414;2023-10-08T20:54:16;1.88;;;0.90;;
39102;SDS011;24847;48.218;16.414;2023-10-08T20:59:20;1.77;;;1.13;;
39102;SDS011;24847;48.218;16.414;2023-10-08T21:04:24;1.52;;;1.00;;
39102;SDS011;24847;48.218;16.414;2023-10-08T21:09:27;1.70;;;0.98;;
39102;SDS011;24847;48.218;16.414;2023-10-08T21:14:31;1.40;;;1.05;;
39102;SDS011;24847;48.218;16.414;2023-10-08T21:19:35;1.45;;;1.13;;
39102;SDS011;24847;48.218;16.414;2023-10-08T21:24:38;2.20;;;1.10;;
39102;SDS011;24847;48.218;16.414;2023-10-08T21:29:40;1.23;;;0.93;;
39102;SDS011;24847;48.218;16.414;2023-10-08T21:34:49;1.60;;;1.13;;
39102;SDS011;24847;48.218;16.414;2023-10-08T21:39:56;1.60;;;1.05;;
39102;SDS011;24847;48.218;16.414;2023-10-08T21:45:00;1.40;;;1.05;;
39102;SDS011;24847;48.218;16.414;2023-10-08T21:50:05;1.25;;;0.85;;
39102;SDS011;24847;48.218;16.414;2023-10-08T21:55:10;2.03;;;1.05;;
39102;SDS011;24847;48.218;16.414;2023-10-08T22:00:16;1.60;;;1.20;;
39102;SDS011;24847;48.218;16.414;2023-10-08T22:05:47;1.02;;;0.90;;
39102;SDS011;24847;48.218;16.414;2023-10-08T22:10:50;3.15;;;1.23;;
39102;SDS011;24847;48.218;16.414;2023-10-08T22:15:52;1.48;;;1.13;;
39102;SDS011;24847;48.218;16.414;2023-10-08T22:20:57;2.22;;;1.23;;
39102;SDS011;24847;48.218;16.414;2023-10-08T22:26:10;1.58;;;1.33;;
39102;SDS011;24847;48.218;16.414;2023-10-08T22:31:14;1.90;;;1.38;;
39102;SDS011;24847;48.218;16.414;2023-10-08T22:36:22;2.15;;;1.27;;
39102;SDS011;24847;48.218;16.414;2023-10-08T22:41:45;1.10;;;0.90;;
39102;SDS011;24847;48.218;16.414;2023-10-08T22:46:54;1.33;;;1.02;;
39102;SDS011;24847;48.218;16.414;2023-10-08T22:52:11;1.52;;;1.10;;
39102;SDS011;24847;48.218;16.414;2023-10-08T22:57:18;1.95;;;1.38;;
39102;SDS011;24847;48.218;16.414;2023-10-08T23:02:29;1.58;;;1.30;;
39102;SDS011;24847;48.218;16.414;2023-10-08T23:07:32;2.58;;;1.20;;
39102;SDS011;24847;48.218;16.414;2023-10-08T23:12:38;1.83;;;1.17;;
39102;SDS011;24847;48.218;16.414;2023-10-08T23:17:40;1.70;;;1.25;;
39102;SDS011;24847;48.218;16.414;2023-10-08T23:22:48;1.73;;;1.30;;
39102;SDS011;24847;48.218;16.414;2023-10-08T23:27:54;2.05;;;1.30;;
39102;SDS011;24847;48.218;16.414;2023-10-08T23:32:56;1.63;;;0.93;;
39102;SDS011;24847;48.218;16.414;2023-10-08T23:38:00;3.08;;;1.20;;
39102;SDS011;24847;48.218;16.414;2023-10-08T23:43:07;1.40;;;1.08;;
39102;SDS011;24847;48.218;16.414;2023-10-08T23:48:09;1.30;;;1.10;;
39102;SDS011;24847;48.218;16.414;2023-10-08T23:53:25;2.63;;;1.30;;
39102;SDS011;24847;48.218;16.414;2023-10-08T23:58:37;2.55;;;1.25;;
